Weather observations for the past three days for
Cumberland
Imperial (Metric)
Date Time (cdt) Wind (mph) Vis. (mi.) Weather Sky Cond. Temperature (ºF) Relative Humidity Wind Chill (°F) Heat Index (°F) Pressure Precipitation (in)
Air Dwpt 6 hour altimeter (in) sea level (mb) 1 hr 3 hr 6 hr
Max. Min.
07 22:35 SW 3 10.00 Fair CLR 39.2 28.4 65% 29.81 0.0
07 22:15 S 3 10.00 Fair CLR 39.2 28.4 65% 29.81 0.0
07 21:55 SW 3 10.00 Fair CLR 39.2 28.4 65% 29.81 0.0
07 21:35 SW 5 10.00 Fair CLR 41 28.4 61% 38 29.81 0.0
07 21:15 SW 3 10.00 Partly Cloudy SCT100 44.6 26.6 49% 29.81 0.0
07 20:55 SW 5 10.00 Partly Cloudy SCT100 48.2 24.8 40% 47 29.8 0.0
07 20:35 W 5 10.00 Partly Cloudy SCT100 50 24.8 37% 49 29.8 0.0
07 20:15 W 6 10.00 Partly Cloudy SCT100 50 26.6 40% 48 29.79 0.0
07 19:50 W 12 G 16 10.00 Mostly Cloudy BKN100 51.8 24.8 35% 29.79 0.0
07 19:35 W 8 10.00 Mostly Cloudy SCT080 BKN100 51.8 26.6 38% 29.79 0.0
07 19:15 W 8 10.00 Overcast OVC100 53.6 24.8 33% 29.79 0.0
07 18:55 W 14 10.00 Overcast SCT080 OVC110 53.6 24.8 33% 29.8 0.0
07 18:35 W 17 10.00 Overcast SCT080 SCT090 OVC110 53.6 24.8 33% 29.8 0.0
07 18:15 W 13 G 21 10.00 Overcast SCT080 OVC110 53.6 23 30% 29.8 0.0
07 17:55 W 18 G 23 10.00 Mostly Cloudy SCT070 BKN080 BKN110 53.6 23 30% 29.8 0.0
07 17:35 W 8 10.00 Mostly Cloudy SCT065 SCT080 BKN110 53.6 24.8 33% 29.81 0.0
07 17:15 W 15 G 25 10.00 Mostly Cloudy BKN080 BKN110 53.6 23 30% 29.81 0.0
07 16:55 W 14 G 24 10.00 Mostly Cloudy BKN090 BKN100 53.6 23 30% 29.81 0.0
07 16:35 W 13 G 21 10.00 Partly Cloudy SCT080 55.4 23 28% 29.81 0.0
07 16:10 W 14 G 23 10.00 Mostly Cloudy BKN080 55.4 23 28% 29.81 0.0
07 15:55 NW 8 G 17 5.00 Partly Cloudy with Haze SCT080 SCT090 53.6 23 30% 29.82 0.0
07 15:35 W 17 G 25 7.00 Overcast OVC080 55.4 23 28% 29.82 0.0
07 15:15 SW 10 G 21 10.00 Mostly Cloudy BKN080 53.6 21.2 28% 29.82 0.0
07 14:55 NW 17 G 24 10.00 Mostly Cloudy BKN080 51.8 21.2 30% 29.83 0.0
07 14:35 NW 3 7.00 Overcast OVC080 51.8 23 32% 29.84 0.0
07 14:15 N 6 10.00 Overcast OVC080 51.8 21.2 30% 29.84 0.0
07 13:55 W 15 G 20 10.00 Overcast OVC080 51.8 21.2 30% 29.84 0.0
07 13:35 W 13 G 18 10.00 Mostly Cloudy BKN080 51.8 21.2 30% 29.84 0.0
07 13:15 NW 8 10.00 Mostly Cloudy BKN070 50 21.2 32% 47 29.85 0.0
07 12:55 N 5 10.00 Overcast OVC070 50 21.2 32% 49 29.86 0.0
07 12:35 W 9 10.00 Mostly Cloudy BKN070 51.8 21.2 30% 29.86 0.0
07 12:15 NW 8 10.00 Mostly Cloudy BKN070 48.2 21.2 34% 45 29.87 0.0
07 11:55 NW 6 10.00 Mostly Cloudy BKN070 50 23 35% 48 29.87 0.0
07 11:35 NW 10 10.00 Mostly Cloudy BKN070 50 21.2 32% 46 29.88 0.0
07 11:15 N 9 10.00 Partly Cloudy SCT070 48.2 21.2 34% 45 29.88 0.0
07 10:55 NE 3 G 20 10.00 Partly Cloudy SCT060 46.4 21.2 37% 29.88 0.0
07 10:35 NW 10 10.00 Mostly Cloudy BKN060 46.4 23 40% 42 29.88 0.0
07 10:15 NW 7 10.00 Partly Cloudy SCT050 46.4 23 40% 43 29.88 0.0
07 09:55 NW 6 G 16 5.00 Mostly Cloudy with Haze BKN050 44.6 26.6 49% 42 29.89 0.0
07 09:35 W 10 10.00 Partly Cloudy SCT050 46.4 28.4 50% 42 29.89 0.0
07 09:15 W 7 G 16 10.00 Fair CLR 44.6 26.6 49% 41 29.89 0.0
07 08:55 NW 8 10.00 Fair CLR 42.8 28.4 57% 39 29.9 0.0
07 08:35 W 7 10.00 Partly Cloudy SCT080 42.8 28.4 57% 39 29.91 0.0
07 08:15 W 6 10.00 Mostly Cloudy BKN080 41 30.2 66% 38 29.91 0.0
07 07:55 W 7 10.00 Overcast OVC080 41 30.2 66% 37 29.91 0.0
07 07:35 W 5 10.00 Overcast OVC080 39.2 30.2 70% 36 29.91 0.0
07 06:55 W 5 10.00 Overcast OVC080 37.4 30.2 75% 34 29.91 0.0
07 06:35 W 7 10.00 Overcast OVC080 37.4 30.2 75% 33 29.9 0.0
07 06:15 W 6 10.00 Overcast OVC070 37.4 30.2 75% 33 29.9 0.0
07 05:55 W 6 10.00 Overcast OVC070 37.4 30.2 75% 33 29.9 0.0
07 05:35 W 7 10.00 Overcast SCT055 OVC070 37.4 30.2 75% 33 29.9 0.0
07 05:15 W 6 10.00 Overcast OVC055 37.4 30.2 75% 33 29.9 0.0
07 04:55 SW 6 10.00 Overcast OVC065 37.4 32 81% 33 29.89 0.0
07 04:35 SW 5 10.00 Overcast OVC065 35.6 32 87% 32 29.9 0.0
07 04:15 SW 5 10.00 Overcast OVC065 35.6 32 87% 32 29.89 0.0
07 03:55 SW 3 10.00 Overcast OVC055 35.6 32 87% 29.89 0.0
07 03:35 Calm 10.00 Overcast OVC055 37.4 32 81% 29.89 0.0
07 03:15 Calm 10.00 Overcast OVC055 37.4 32 81% 29.89 0.0
07 02:55 SW 3 10.00 Overcast OVC055 37.4 32 81% 29.9 0.0
07 02:35 SW 5 10.00 Overcast OVC055 37.4 32 81% 34 29.9 0.0
07 02:15 SW 5 10.00 Overcast OVC055 37.4 32 81% 34 29.91 0.0
07 01:55 SW 5 10.00 Overcast OVC055 37.4 32 81% 34 29.92 0.0
07 01:35 SW 5 10.00 Overcast OVC055 37.4 30.2 75% 34 29.92 0.0
07 01:15 SW 5 10.00 Overcast OVC055 37.4 30.2 75% 34 29.93 0.0
07 00:55 SW 3 10.00 Overcast OVC055 37.4 30.2 75% 29.93 0.0
07 00:35 SW 3 10.00 Overcast OVC055 37.4 32 81% 29.93 0.0
07 00:15 SW 3 10.00 Overcast OVC055 37.4 30.2 75% 29.93 0.0
06 23:55 SW 5 10.00 Overcast OVC055 37.4 30.2 75% 34 29.94 0.0
06 23:35 SW 5 10.00 Overcast OVC055 37.4 30.2 75% 34 29.94 0.0
06 23:15 SW 3 10.00 Overcast OVC055 37.4 30.2 75% 29.94 0.0
06 22:55 SW 3 10.00 Overcast OVC055 39.2 30.2 70% 29.95 0.0
06 22:35 SW 5 10.00 Overcast OVC055 37.4 30.2 75% 34 29.95 0.0
06 22:15 SW 6 10.00 Overcast OVC055 39.2 30.2 70% 36 29.96 0.0
06 21:35 SW 5 10.00 Overcast OVC055 39.2 28.4 65% 36 29.96 0.0
06 21:15 W 3 10.00 Overcast OVC055 39.2 28.4 65% 29.96 0.0
06 20:55 W 3 10.00 Overcast OVC055 41 28.4 61% 29.96 0.0
06 20:35 W 5 10.00 Overcast OVC055 41 28.4 61% 38 29.96 0.0
06 20:15 W 7 10.00 Overcast OVC049 41 26.6 57% 37 29.96 0.0
06 19:55 W 7 10.00 Overcast OVC049 41 26.6 57% 37 29.96 0.0
06 19:35 W 10 10.00 Overcast OVC049 41 26.6 57% 35 29.96 0.0
06 19:15 W 10 10.00 Overcast OVC049 41 26.6 57% 35 29.96 0.0
06 18:55 W 12 10.00 Overcast OVC049 41 26.6 57% 35 29.96 0.0
06 18:35 W 10 10.00 Overcast OVC049 42.8 26.6 53% 38 29.96 0.0
06 18:15 W 12 10.00 Overcast OVC049 42.8 26.6 53% 37 29.96 0.0
06 17:55 W 10 10.00 Overcast OVC049 42.8 26.6 53% 38 29.96 0.0
06 17:35 W 10 10.00 Overcast OVC049 42.8 26.6 53% 38 29.97 0.0
06 16:55 W 15 G 20 10.00 Overcast OVC049 42.8 26.6 53% 36 29.96 0.0
06 16:35 W 12 G 18 10.00 Overcast OVC047 42.8 26.6 53% 37 29.96 0.0
06 16:15 W 12 G 16 10.00 Overcast OVC047 42.8 28.4 57% 37 29.96 0.0
06 15:55 W 13 G 18 10.00 Overcast OVC047 42.8 26.6 53% 37 29.97 0.0
06 15:35 W 13 G 18 10.00 Overcast OVC047 42.8 26.6 53% 37 29.97 0.0
06 15:15 W 10 10.00 Overcast OVC047 42.8 26.6 53% 38 29.97 0.0
06 14:55 W 13 G 17 10.00 Overcast OVC047 42.8 28.4 57% 37 29.97 0.0
06 14:35 NW 12 G 16 10.00 Overcast OVC043 41 26.6 57% 35 29.98 0.0
06 14:15 W 15 G 20 10.00 Overcast OVC043 41 26.6 57% 34 29.98 0.0
06 13:55 W 14 G 18 10.00 Overcast OVC041 41 28.4 61% 34 29.98 0.0
06 13:35 W 9 10.00 Overcast OVC041 41 26.6 57% 36 29.98 0.0
06 13:15 W 15 10.00 Overcast OVC043 41 26.6 57% 34 29.98 0.0
06 12:55 W 12 10.00 Overcast OVC043 41 26.6 57% 35 29.98 0.0
06 12:35 W 8 10.00 Overcast OVC043 41 26.6 57% 36 29.98 0.0
06 12:15 W 10 G 21 10.00 Overcast OVC043 41 26.6 57% 35 29.98 0.0
06 11:55 NW 10 10.00 Overcast OVC043 41 26.6 57% 35 29.98 0.0
06 11:35 NW 13 G 18 10.00 Overcast OVC043 39.2 26.6 61% 32 29.98 0.0
06 11:15 W 12 G 20 10.00 Overcast OVC043 39.2 26.6 61% 33 29.99 0.0
06 10:55 NW 9 10.00 Overcast OVC043 39.2 24.8 56% 34 29.98 0.0
06 10:35 NW 13 G 18 10.00 Overcast OVC043 39.2 24.8 56% 32 29.98 0.0
06 10:15 NW 12 10.00 Overcast OVC043 39.2 24.8 56% 33 29.98 0.0
06 09:55 NW 14 G 17 10.00 Overcast OVC043 39.2 23 52% 32 29.98 0.0
06 09:35 N 12 G 22 10.00 Overcast OVC043 37.4 23 56% 30 29.98 0.0
06 09:15 NW 10 10.00 Overcast OVC043 37.4 23 56% 31 29.97 0.0
06 08:55 NW 14 G 18 10.00 Overcast OVC043 37.4 23 56% 30 29.97 0.0
06 08:35 NW 12 G 17 10.00 Overcast OVC041 37.4 23 56% 30 29.97 0.0
06 08:15 N 12 10.00 Overcast OVC041 37.4 23 56% 30 29.97 0.0
06 07:55 NW 8 10.00 Overcast OVC041 37.4 23 56% 32 29.96 0.0
06 07:15 NW 8 10.00 Overcast OVC039 35.6 24.8 65% 30 29.95 0.0
06 06:55 NW 9 10.00 Overcast OVC039 35.6 26.6 70% 29 29.95 0.0
06 06:35 W 12 10.00 Overcast OVC039 35.6 26.6 70% 28 29.94 0.0
06 05:55 NW 12 10.00 Overcast OVC039 35.6 26.6 70% 28 29.92 0.0
06 05:35 N 9 10.00 Overcast OVC039 35.6 26.6 70% 29 29.92 0.0
06 05:15 NW 6 10.00 Overcast OVC039 35.6 26.6 70% 31 29.93 0.0
06 04:55 NW 8 10.00 Overcast OVC039 37.4 26.6 65% 32 29.93 0.0
06 04:35 NW 6 10.00 Overcast OVC039 37.4 26.6 65% 33 29.92 0.0
06 04:15 N 6 10.00 Overcast OVC041 35.6 26.6 70% 31 29.92 0.0
06 03:55 N 6 10.00 Overcast OVC041 37.4 24.8 60% 33 29.92 0.0
06 03:35 N 8 10.00 Overcast OVC041 37.4 24.8 60% 32 29.91 0.0
06 03:15 N 6 10.00 Overcast OVC041 35.6 26.6 70% 31 29.91 0.0
06 02:55 NW 7 10.00 Overcast OVC041 35.6 26.6 70% 31 29.91 0.0
06 02:35 NW 7 10.00 Overcast OVC039 35.6 26.6 70% 31 29.91 0.0
06 02:15 NW 8 10.00 Partly Cloudy SCT039 33.8 26.6 75% 28 29.91 0.0
06 01:55 NW 6 10.00 Fair CLR 33.8 26.6 75% 29 29.91 0.0
06 01:35 NW 6 10.00 Fair CLR 33.8 24.8 70% 29 29.91 0.0
06 01:15 NW 7 10.00 Fair CLR 33.8 24.8 70% 28 29.91 0.0
06 00:55 NW 6 10.00 Fair CLR 35.6 26.6 70% 31 29.91 0.0
06 00:35 NW 13 10.00 Fair CLR 35.6 24.8 65% 28 29.9 0.0
06 00:15 NW 10 10.00 Fair CLR 37.4 24.8 60% 31 29.9 0.0
05 23:55 NW 15 G 18 10.00 Mostly Cloudy BKN065 37.4 24.8 60% 29 29.89 0.0
05 23:35 NW 12 10.00 Overcast OVC065 39.2 24.8 56% 33 29.89 0.0
05 23:15 NW 13 G 21 10.00 Overcast OVC065 39.2 26.6 61% 32 29.89 0.0
05 22:55 NW 12 G 16 10.00 Overcast OVC065 41 26.6 57% 35 29.89 0.0
05 22:35 N 12 10.00 Overcast OVC065 41 26.6 57% 35 29.88 0.0
05 22:15 N 13 G 16 10.00 Overcast OVC065 41 26.6 57% 34 29.88 0.0
05 21:35 NW 14 10.00 Overcast OVC065 42.8 26.6 53% 36 29.86 0.0
05 21:15 NW 10 10.00 Mostly Cloudy BKN065 42.8 26.6 53% 38 29.86 0.0
05 20:55 NW 13 10.00 Partly Cloudy SCT065 42.8 26.6 53% 37 29.85 0.0
05 20:35 NW 8 10.00 Partly Cloudy SCT055 42.8 28.4 57% 39 29.84 0.0
05 20:15 NW 14 G 20 10.00 Partly Cloudy SCT055 44.6 26.6 49% 39 29.84 0.0
05 19:55 NW 13 G 16 10.00 Partly Cloudy SCT070 44.6 28.4 53% 39 29.83 0.0
05 19:35 NW 10 10.00 Mostly Cloudy SCT060 BKN070 46.4 28.4 50% 42 29.82 0.0
05 19:15 NW 14 10.00 Overcast BKN060 OVC075 44.6 28.4 53% 39 29.82 0.0
05 18:55 W 14 G 24 10.00 Overcast OVC060 46.4 26.6 46% 41 29.81 0.0
05 18:35 W 10 10.00 Overcast SCT060 BKN070 OVC090 48.2 26.6 43% 44 29.81 0.0
05 18:15 W 12 G 20 10.00 Mostly Cloudy SCT070 BKN090 48.2 26.6 43% 44 29.81 0.0
05 17:55 W 12 G 22 10.00 Mostly Cloudy SCT060 BKN090 48.2 28.4 46% 44 29.81 0.0
05 17:35 W 16 10.00 Mostly Cloudy SCT060 BKN090 48.2 26.6 43% 43 29.81 0.0
05 17:15 W 16 G 28 10.00 Overcast BKN060 BKN075 OVC090 46.4 26.6 46% 40 29.81 0.0
05 16:55 W 14 G 20 10.00 Overcast BKN060 OVC075 48.2 26.6 43% 43 29.81 0.0
05 16:35 NW 12 G 17 10.00 Overcast BKN060 OVC075 46.4 26.6 46% 42 29.81 0.0
05 16:15 NW 12 G 18 10.00 Overcast BKN060 OVC080 46.4 26.6 46% 42 29.81 0.0
05 15:55 W 14 G 23 10.00 Overcast SCT060 OVC070 48.2 26.6 43% 43 29.81 0.0
05 15:35 W 12 G 20 10.00 Overcast SCT060 OVC070 46.4 26.6 46% 42 29.82 0.0
05 15:15 NW 15 G 18 10.00 Overcast BKN060 OVC070 46.4 26.6 46% 41 29.82 0.0
05 14:55 W 13 G 24 10.00 Overcast BKN060 OVC070 46.4 28.4 50% 41 29.82 0.0
05 14:35 W 15 G 25 10.00 Overcast SCT055 OVC065 44.6 28.4 53% 38 29.83 0.0
05 14:15 W 14 G 22 10.00 Overcast SCT055 OVC065 46.4 26.6 46% 41 29.82 0.0
05 13:55 NW 15 10.00 Overcast SCT050 OVC065 44.6 28.4 53% 38 29.82 0.0
05 13:35 W 16 G 23 10.00 Overcast SCT049 OVC060 46.4 28.4 50% 40 29.82 0.0
05 13:15 NW 16 G 20 10.00 Overcast SCT049 OVC060 44.6 28.4 53% 38 29.82 0.0
05 12:55 NW 13 10.00 Overcast SCT045 OVC060 42.8 26.6 53% 37 29.82 0.0
05 12:35 NW 14 G 23 10.00 Overcast OVC050 42.8 26.6 53% 36 29.82 0.0
05 12:15 NW 20 G 24 10.00 Overcast BKN050 OVC060 42.8 26.6 53% 35 29.82 0.0
05 11:50 NW 20 G 30 10.00 Overcast SCT047 OVC060 42.8 26.6 53% 35 29.82 0.0
05 11:35 NW 17 G 29 10.00 Overcast BKN047 BKN060 OVC070 42.8 26.6 53% 35 29.81 0.0
05 11:15 NW 13 G 20 10.00 Overcast BKN047 BKN060 OVC070 42.8 26.6 53% 37 29.81 0.0
05 10:55 W 17 G 25 10.00 Overcast SCT047 OVC070 42.8 26.6 53% 35 29.81 0.0
05 10:35 NW 15 G 21 10.00 Overcast SCT047 OVC070 42.8 28.4 57% 36 29.81 0.0
05 10:15 W 21 G 26 10.00 Overcast and Breezy SCT045 OVC070 42.8 26.6 53% 35 29.8 0.0
05 09:55 W 22 G 29 10.00 Mostly Cloudy and Breezy SCT045 BKN070 41 26.6 57% 32 29.79 0.0
05 09:30 NW 13 10.00 Partly Cloudy SCT070 41 26.6 57% 34 29.79 0.0
05 09:15 NW 15 G 21 10.00 Fair CLR 41 26.6 57% 34 29.79 0.0
05 08:55 NW 13 10.00 Fair CLR 41 26.6 57% 34 29.78 0.0
05 08:35 NW 15 G 21 10.00 Fair CLR 39.2 26.6 61% 31 29.78 0.0
05 08:15 NW 10 10.00 Fair CLR 37.4 26.6 65% 31 29.78 0.0
05 07:55 NW 15 G 20 10.00 Fair CLR 37.4 26.6 65% 29 29.77 0.0
05 07:35 NW 14 10.00 Fair CLR 37.4 26.6 65% 30 29.76 0.0
05 07:15 NW 13 G 21 10.00 Fair CLR 37.4 28.4 70% 30 29.75 0.0
05 06:35 NW 9 10.00 Fair CLR 35.6 28.4 75% 29 29.73 0.0
05 06:15 NW 8 10.00 Fair CLR 35.6 28.4 75% 30 29.72 0.0
05 05:55 NW 7 10.00 Fair CLR 35.6 28.4 75% 31 29.71 0.0
05 05:35 NW 8 10.00 Fair CLR 35.6 30.2 81% 30 29.71 0.0
05 05:15 W 10 10.00 Fair CLR 35.6 30.2 81% 29 29.71 0.0
05 04:55 W 10 10.00 Fair CLR 35.6 30.2 81% 29 29.71 0.0
05 04:35 W 10 G 16 10.00 Fair CLR 37.4 30.2 75% 31 29.71 0.0
05 04:15 W 9 10.00 Fair CLR 37.4 28.4 70% 31 29.7 0.0
05 03:55 NW 10 10.00 Fair CLR 37.4 28.4 70% 31 29.69 0.0
05 03:35 NW 9 10.00 Fair CLR 37.4 30.2 75% 31 29.68 0.0
05 03:15 W 10 10.00 Fair CLR 37.4 30.2 75% 31 29.67 0.0
05 02:55 NW 13 10.00 Fair CLR 39.2 30.2 70% 32 29.67 0.0
05 02:35 W 14 G 20 10.00 Fair CLR 39.2 30.2 70% 32 29.67 0.0
05 02:15 W 12 G 17 10.00 Fair CLR 39.2 30.2 70% 33 29.67 0.0
05 01:55 W 10 10.00 Fair CLR 39.2 30.2 70% 33 29.67 0.0
05 01:35 W 10 10.00 Fair CLR 39.2 30.2 70% 33 29.67 0.0
05 01:15 W 10 10.00 Fair CLR 41 30.2 66% 35 29.67 0.0
05 00:55 W 8 10.00 Fair CLR 39.2 30.2 70% 34 29.67 0.0
05 00:35 W 8 10.00 Fair CLR 39.2 30.2 70% 34 29.67 0.0
05 00:15 W 8 10.00 Fair CLR 41 28.4 61% 36 29.66 0.0
04 23:55 W 8 10.00 Partly Cloudy SCT070 41 28.4 61% 36 29.66 0.0
04 23:35 W 12 10.00 Mostly Cloudy BKN070 41 28.4 61% 35 29.66 0.0
04 23:15 W 7 10.00 Mostly Cloudy BKN070 41 30.2 66% 37 29.66 0.0
Date Time (cdt) Wind (mph) Vis. (mi.) Weather Sky Cond. Air Dwpt Max. Min. Relative Humidity Wind Chill (°F) Heat Index (°F) altimeter (in) sea level (mb) 1 hr 3 hr 6 hr
6 hour
Temperature (ºF) Pressure Precipitation (in)